sensor_id;sensor_type;location;lat;lon;timestamp;temperature;humidity
54938;DHT22;52756;52.826;6.214;2024-03-25T00:00:39;7.30;88.60
54938;DHT22;52756;52.826;6.214;2024-03-25T00:03:05;7.40;88.70
54938;DHT22;52756;52.826;6.214;2024-03-25T00:05:30;7.40;88.70
54938;DHT22;52756;52.826;6.214;2024-03-25T00:07:58;7.30;88.60
54938;DHT22;52756;52.826;6.214;2024-03-25T00:10:24;7.30;88.20
54938;DHT22;52756;52.826;6.214;2024-03-25T00:12:49;7.30;87.90
54938;DHT22;52756;52.826;6.214;2024-03-25T00:15:18;7.30;87.90
54938;DHT22;52756;52.826;6.214;2024-03-25T00:17:45;7.20;88.00
54938;DHT22;52756;52.826;6.214;2024-03-25T00:20:15;7.20;88.10
54938;DHT22;52756;52.826;6.214;2024-03-25T00:22:40;7.10;88.20
54938;DHT22;52756;52.826;6.214;2024-03-25T00:25:06;7.10;88.50
54938;DHT22;52756;52.826;6.214;2024-03-25T00:27:32;7.10;88.60
54938;DHT22;52756;52.826;6.214;2024-03-25T00:29:58;7.10;88.70
54938;DHT22;52756;52.826;6.214;2024-03-25T00:32:24;7.10;88.80
54938;DHT22;52756;52.826;6.214;2024-03-25T00:34:50;7.10;88.80
54938;DHT22;52756;52.826;6.214;2024-03-25T00:37:15;7.00;88.80
54938;DHT22;52756;52.826;6.214;2024-03-25T00:39:41;7.30;89.00
54938;DHT22;52756;52.826;6.214;2024-03-25T00:42:07;7.10;88.80
54938;DHT22;52756;52.826;6.214;2024-03-25T00:44:32;7.00;88.50
54938;DHT22;52756;52.826;6.214;2024-03-25T00:46:58;7.00;88.40
54938;DHT22;52756;52.826;6.214;2024-03-25T00:49:24;7.00;88.30
54938;DHT22;52756;52.826;6.214;2024-03-25T00:51:50;7.00;88.30
54938;DHT22;52756;52.826;6.214;2024-03-25T00:54:15;6.90;88.60
54938;DHT22;52756;52.826;6.214;2024-03-25T00:56:41;6.90;88.40
54938;DHT22;52756;52.826;6.214;2024-03-25T00:59:07;6.90;88.60
54938;DHT22;52756;52.826;6.214;2024-03-25T01:01:33;7.10;88.80
54938;DHT22;52756;52.826;6.214;2024-03-25T01:04:01;7.30;89.10
54938;DHT22;52756;52.826;6.214;2024-03-25T01:06:27;6.90;88.90
54938;DHT22;52756;52.826;6.214;2024-03-25T01:08:52;6.90;89.00
54938;DHT22;52756;52.826;6.214;2024-03-25T01:11:18;6.90;89.00
54938;DHT22;52756;52.826;6.214;2024-03-25T01:13:43;6.90;89.00
54938;DHT22;52756;52.826;6.214;2024-03-25T01:16:09;6.90;89.00
54938;DHT22;52756;52.826;6.214;2024-03-25T01:18:35;6.90;89.00
54938;DHT22;52756;52.826;6.214;2024-03-25T01:21:01;6.90;89.00
54938;DHT22;52756;52.826;6.214;2024-03-25T01:23:27;6.90;89.00
54938;DHT22;52756;52.826;6.214;2024-03-25T01:25:52;6.90;88.90
54938;DHT22;52756;52.826;6.214;2024-03-25T01:28:18;6.90;88.80
54938;DHT22;52756;52.826;6.214;2024-03-25T01:30:43;6.80;88.70
54938;DHT22;52756;52.826;6.214;2024-03-25T01:33:09;6.80;88.50
54938;DHT22;52756;52.826;6.214;2024-03-25T01:35:35;6.80;88.30
54938;DHT22;52756;52.826;6.214;2024-03-25T01:38:01;6.80;88.20
54938;DHT22;52756;52.826;6.214;2024-03-25T01:40:26;7.00;88.40
54938;DHT22;52756;52.826;6.214;2024-03-25T01:42:59;6.70;88.20
54938;DHT22;52756;52.826;6.214;2024-03-25T01:45:28;6.70;88.30
54938;DHT22;52756;52.826;6.214;2024-03-25T01:47:58;6.70;88.30
54938;DHT22;52756;52.826;6.214;2024-03-25T01:50:24;7.30;88.60
54938;DHT22;52756;52.826;6.214;2024-03-25T01:52:51;6.70;88.10
54938;DHT22;52756;52.826;6.214;2024-03-25T01:55:20;6.60;88.10
54938;DHT22;52756;52.826;6.214;2024-03-25T01:57:47;6.60;88.10
54938;DHT22;52756;52.826;6.214;2024-03-25T02:00:14;6.60;88.20
54938;DHT22;52756;52.826;6.214;2024-03-25T02:02:42;6.60;88.20
54938;DHT22;52756;52.826;6.214;2024-03-25T02:05:10;6.60;88.10
54938;DHT22;52756;52.826;6.214;2024-03-25T02:07:36;6.50;88.10
54938;DHT22;52756;52.826;6.214;2024-03-25T02:10:03;6.50;88.20
54938;DHT22;52756;52.826;6.214;2024-03-25T02:12:30;6.50;88.20
54938;DHT22;52756;52.826;6.214;2024-03-25T02:14:56;7.10;88.60
54938;DHT22;52756;52.826;6.214;2024-03-25T02:17:22;6.50;88.30
54938;DHT22;52756;52.826;6.214;2024-03-25T02:19:48;6.50;88.40
54938;DHT22;52756;52.826;6.214;2024-03-25T02:22:13;6.50;88.50
54938;DHT22;52756;52.826;6.214;2024-03-25T02:24:40;6.50;88.60
54938;DHT22;52756;52.826;6.214;2024-03-25T02:27:06;6.40;88.60
54938;DHT22;52756;52.826;6.214;2024-03-25T02:29:36;6.40;88.80
54938;DHT22;52756;52.826;6.214;2024-03-25T02:32:02;6.60;89.00
54938;DHT22;52756;52.826;6.214;2024-03-25T02:34:28;6.40;89.00
54938;DHT22;52756;52.826;6.214;2024-03-25T02:36:54;6.40;89.10
54938;DHT22;52756;52.826;6.214;2024-03-25T02:39:20;6.40;89.20
54938;DHT22;52756;52.826;6.214;2024-03-25T02:41:46;6.40;89.30
54938;DHT22;52756;52.826;6.214;2024-03-25T02:44:12;6.40;89.40
54938;DHT22;52756;52.826;6.214;2024-03-25T02:46:40;6.40;89.50
54938;DHT22;52756;52.826;6.214;2024-03-25T02:49:05;6.50;89.70
54938;DHT22;52756;52.826;6.214;2024-03-25T02:51:31;6.50;89.70
54938;DHT22;52756;52.826;6.214;2024-03-25T02:53:57;6.50;89.80
54938;DHT22;52756;52.826;6.214;2024-03-25T02:56:22;6.50;90.00
54938;DHT22;52756;52.826;6.214;2024-03-25T02:58:48;6.50;89.90
54938;DHT22;52756;52.826;6.214;2024-03-25T03:01:16;6.40;89.70
54938;DHT22;52756;52.826;6.214;2024-03-25T03:03:42;6.50;89.80
54938;DHT22;52756;52.826;6.214;2024-03-25T03:06:08;6.50;89.80
54938;DHT22;52756;52.826;6.214;2024-03-25T03:08:34;6.50;89.80
54938;DHT22;52756;52.826;6.214;2024-03-25T03:10:59;6.50;89.80
54938;DHT22;52756;52.826;6.214;2024-03-25T03:13:25;6.50;89.80
54938;DHT22;52756;52.826;6.214;2024-03-25T03:15:51;6.50;89.80
54938;DHT22;52756;52.826;6.214;2024-03-25T03:18:16;6.50;89.70
54938;DHT22;52756;52.826;6.214;2024-03-25T03:20:42;6.50;89.70
54938;DHT22;52756;52.826;6.214;2024-03-25T03:23:08;6.50;89.70
54938;DHT22;52756;52.826;6.214;2024-03-25T03:25:33;6.50;89.70
54938;DHT22;52756;52.826;6.214;2024-03-25T03:27:59;6.50;89.70
54938;DHT22;52756;52.826;6.214;2024-03-25T03:30:27;6.50;89.60
54938;DHT22;52756;52.826;6.214;2024-03-25T03:32:53;6.50;89.90
54938;DHT22;52756;52.826;6.214;2024-03-25T03:35:19;6.50;89.50
54938;DHT22;52756;52.826;6.214;2024-03-25T03:37:44;6.50;89.40
54938;DHT22;52756;52.826;6.214;2024-03-25T03:40:10;6.50;89.40
54938;DHT22;52756;52.826;6.214;2024-03-25T03:42:36;6.50;89.40
54938;DHT22;52756;52.826;6.214;2024-03-25T03:45:02;6.50;89.40
54938;DHT22;52756;52.826;6.214;2024-03-25T03:47:28;6.50;89.40
54938;DHT22;52756;52.826;6.214;2024-03-25T03:49:54;6.50;89.50
54938;DHT22;52756;52.826;6.214;2024-03-25T03:52:19;6.50;89.50
54938;DHT22;52756;52.826;6.214;2024-03-25T03:54:48;6.60;89.60
54938;DHT22;52756;52.826;6.214;2024-03-25T03:57:13;6.50;89.60
54938;DHT22;52756;52.826;6.214;2024-03-25T03:59:39;6.50;90.00
54938;DHT22;52756;52.826;6.214;2024-03-25T04:02:04;6.50;89.70
54938;DHT22;52756;52.826;6.214;2024-03-25T04:04:30;6.60;89.70
54938;DHT22;52756;52.826;6.214;2024-03-25T04:06:56;6.60;89.80
54938;DHT22;52756;52.826;6.214;2024-03-25T04:09:22;6.60;89.80
54938;DHT22;52756;52.826;6.214;2024-03-25T04:11:49;6.60;89.90
54938;DHT22;52756;52.826;6.214;2024-03-25T04:14:15;6.60;90.00
54938;DHT22;52756;52.826;6.214;2024-03-25T04:16:40;6.60;90.00
54938;DHT22;52756;52.826;6.214;2024-03-25T04:19:06;6.60;90.00
54938;DHT22;52756;52.826;6.214;2024-03-25T04:21:31;6.60;90.00
54938;DHT22;52756;52.826;6.214;2024-03-25T04:23:57;6.60;90.00
54938;DHT22;52756;52.826;6.214;2024-03-25T04:26:23;6.60;90.00
54938;DHT22;52756;52.826;6.214;2024-03-25T04:28:48;6.60;90.20
54938;DHT22;52756;52.826;6.214;2024-03-25T04:31:14;6.60;90.10
54938;DHT22;52756;52.826;6.214;2024-03-25T04:33:40;6.60;90.00
54938;DHT22;52756;52.826;6.214;2024-03-25T04:36:06;6.60;90.00
54938;DHT22;52756;52.826;6.214;2024-03-25T04:38:32;6.60;90.00
54938;DHT22;52756;52.826;6.214;2024-03-25T04:40:58;6.70;90.10
54938;DHT22;52756;52.826;6.214;2024-03-25T04:43:23;6.50;90.00
54938;DHT22;52756;52.826;6.214;2024-03-25T04:45:49;6.60;90.00
54938;DHT22;52756;52.826;6.214;2024-03-25T04:48:14;6.50;90.00
54938;DHT22;52756;52.826;6.214;2024-03-25T04:50:40;6.50;90.00
54938;DHT22;52756;52.826;6.214;2024-03-25T04:53:06;6.50;90.00
54938;DHT22;52756;52.826;6.214;2024-03-25T04:55:31;6.50;90.00
54938;DHT22;52756;52.826;6.214;2024-03-25T04:57:57;6.50;90.00
54938;DHT22;52756;52.826;6.214;2024-03-25T05:00:22;6.50;90.00
54938;DHT22;52756;52.826;6.214;2024-03-25T05:02:48;6.50;90.00
54938;DHT22;52756;52.826;6.214;2024-03-25T05:05:14;6.50;90.00
54938;DHT22;52756;52.826;6.214;2024-03-25T05:07:39;6.50;89.90
54938;DHT22;52756;52.826;6.214;2024-03-25T05:10:05;6.40;89.90
54938;DHT22;52756;52.826;6.214;2024-03-25T05:12:31;6.50;89.80
54938;DHT22;52756;52.826;6.214;2024-03-25T05:14:56;6.40;89.70
54938;DHT22;52756;52.826;6.214;2024-03-25T05:17:22;6.40;89.60
54938;DHT22;52756;52.826;6.214;2024-03-25T05:19:48;6.40;89.50
54938;DHT22;52756;52.826;6.214;2024-03-25T05:22:13;6.40;89.40
54938;DHT22;52756;52.826;6.214;2024-03-25T05:24:39;6.40;89.20
54938;DHT22;52756;52.826;6.214;2024-03-25T05:27:05;6.40;89.10
54938;DHT22;52756;52.826;6.214;2024-03-25T05:29:30;6.50;89.00
54938;DHT22;52756;52.826;6.214;2024-03-25T05:32:00;6.40;88.90
54938;DHT22;52756;52.826;6.214;2024-03-25T05:34:27;6.30;88.80
54938;DHT22;52756;52.826;6.214;2024-03-25T05:36:54;6.30;88.80
54938;DHT22;52756;52.826;6.214;2024-03-25T05:39:20;6.30;88.70
54938;DHT22;52756;52.826;6.214;2024-03-25T05:41:46;6.30;88.70
54938;DHT22;52756;52.826;6.214;2024-03-25T05:44:11;6.20;88.60
54938;DHT22;52756;52.826;6.214;2024-03-25T05:46:38;6.30;88.70
54938;DHT22;52756;52.826;6.214;2024-03-25T05:49:04;6.20;88.60
54938;DHT22;52756;52.826;6.214;2024-03-25T05:51:31;6.90;89.00
54938;DHT22;52756;52.826;6.214;2024-03-25T05:53:58;6.20;88.60
54938;DHT22;52756;52.826;6.214;2024-03-25T05:56:24;6.20;88.70
54938;DHT22;52756;52.826;6.214;2024-03-25T05:58:56;6.20;88.90
54938;DHT22;52756;52.826;6.214;2024-03-25T06:01:22;6.20;89.20
54938;DHT22;52756;52.826;6.214;2024-03-25T06:03:47;6.20;89.50
54938;DHT22;52756;52.826;6.214;2024-03-25T06:06:13;6.30;89.70
54938;DHT22;52756;52.826;6.214;2024-03-25T06:08:38;6.30;89.70
54938;DHT22;52756;52.826;6.214;2024-03-25T06:11:04;6.30;90.00
54938;DHT22;52756;52.826;6.214;2024-03-25T06:13:30;6.40;90.10
54938;DHT22;52756;52.826;6.214;2024-03-25T06:15:55;6.50;90.20
54938;DHT22;52756;52.826;6.214;2024-03-25T06:18:21;6.50;90.40
54938;DHT22;52756;52.826;6.214;2024-03-25T06:20:47;6.60;90.50
54938;DHT22;52756;52.826;6.214;2024-03-25T06:23:23;6.70;90.50
54938;DHT22;52756;52.826;6.214;2024-03-25T06:25:49;6.80;90.60
54938;DHT22;52756;52.826;6.214;2024-03-25T06:28:15;6.80;90.50
54938;DHT22;52756;52.826;6.214;2024-03-25T06:30:40;6.90;90.40
54938;DHT22;52756;52.826;6.214;2024-03-25T06:33:25;6.90;90.30
54938;DHT22;52756;52.826;6.214;2024-03-25T06:36:09;7.00;90.20
54938;DHT22;52756;52.826;6.214;2024-03-25T06:38:34;7.30;90.30
54938;DHT22;52756;52.826;6.214;2024-03-25T06:41:00;7.10;90.30
54938;DHT22;52756;52.826;6.214;2024-03-25T06:43:25;7.20;90.40
54938;DHT22;52756;52.826;6.214;2024-03-25T06:45:51;7.30;90.40
54938;DHT22;52756;52.826;6.214;2024-03-25T06:48:16;7.40;90.40
54938;DHT22;52756;52.826;6.214;2024-03-25T06:50:55;8.10;90.50
54938;DHT22;52756;52.826;6.214;2024-03-25T06:53:21;7.70;90.10
54938;DHT22;52756;52.826;6.214;2024-03-25T06:55:58;7.80;90.00
54938;DHT22;52756;52.826;6.214;2024-03-25T06:58:25;7.90;89.70
54938;DHT22;52756;52.826;6.214;2024-03-25T07:00:52;8.00;89.30
54938;DHT22;52756;52.826;6.214;2024-03-25T07:03:19;8.10;88.80
54938;DHT22;52756;52.826;6.214;2024-03-25T07:05:46;8.20;88.40
54938;DHT22;52756;52.826;6.214;2024-03-25T07:08:12;8.20;87.80
54938;DHT22;52756;52.826;6.214;2024-03-25T07:10:38;8.20;87.50
54938;DHT22;52756;52.826;6.214;2024-03-25T07:13:04;8.30;87.20
54938;DHT22;52756;52.826;6.214;2024-03-25T07:15:31;8.30;87.10
54938;DHT22;52756;52.826;6.214;2024-03-25T07:17:56;8.30;87.10
54938;DHT22;52756;52.826;6.214;2024-03-25T07:20:23;8.40;86.90
54938;DHT22;52756;52.826;6.214;2024-03-25T07:22:48;8.40;86.70
54938;DHT22;52756;52.826;6.214;2024-03-25T07:25:14;8.40;86.60
54938;DHT22;52756;52.826;6.214;2024-03-25T07:27:40;8.40;86.40
54938;DHT22;52756;52.826;6.214;2024-03-25T07:30:07;8.50;86.40
54938;DHT22;52756;52.826;6.214;2024-03-25T07:32:36;8.50;86.30
54938;DHT22;52756;52.826;6.214;2024-03-25T07:35:01;8.50;86.20
54938;DHT22;52756;52.826;6.214;2024-03-25T07:37:27;8.50;86.20
54938;DHT22;52756;52.826;6.214;2024-03-25T07:39:52;8.50;86.20
54938;DHT22;52756;52.826;6.214;2024-03-25T07:42:18;8.60;86.40
54938;DHT22;52756;52.826;6.214;2024-03-25T07:44:44;9.20;86.90
54938;DHT22;52756;52.826;6.214;2024-03-25T07:47:10;8.70;86.70
54938;DHT22;52756;52.826;6.214;2024-03-25T07:49:35;8.80;86.70
54938;DHT22;52756;52.826;6.214;2024-03-25T07:52:01;8.90;86.30
54938;DHT22;52756;52.826;6.214;2024-03-25T07:54:28;8.90;86.20
54938;DHT22;52756;52.826;6.214;2024-03-25T07:56:54;8.90;86.10
54938;DHT22;52756;52.826;6.214;2024-03-25T07:59:19;9.00;85.80
54938;DHT22;52756;52.826;6.214;2024-03-25T08:01:45;9.00;85.60
54938;DHT22;52756;52.826;6.214;2024-03-25T08:04:10;9.10;85.70
54938;DHT22;52756;52.826;6.214;2024-03-25T08:06:36;9.10;85.60
54938;DHT22;52756;52.826;6.214;2024-03-25T08:09:02;9.20;85.70
54938;DHT22;52756;52.826;6.214;2024-03-25T08:11:30;9.20;85.50
54938;DHT22;52756;52.826;6.214;2024-03-25T08:13:56;9.40;86.00
54938;DHT22;52756;52.826;6.214;2024-03-25T08:16:22;9.40;86.00
54938;DHT22;52756;52.826;6.214;2024-03-25T08:18:48;9.80;86.70
54938;DHT22;52756;52.826;6.214;2024-03-25T08:21:13;9.70;86.40
54938;DHT22;52756;52.826;6.214;2024-03-25T08:23:39;10.00;85.70
54938;DHT22;52756;52.826;6.214;2024-03-25T08:26:06;10.20;85.10
54938;DHT22;52756;52.826;6.214;2024-03-25T08:28:32;10.30;85.20
54938;DHT22;52756;52.826;6.214;2024-03-25T08:30:58;10.60;84.90
54938;DHT22;52756;52.826;6.214;2024-03-25T08:33:24;10.80;84.40
54938;DHT22;52756;52.826;6.214;2024-03-25T08:35:49;11.10;83.50
54938;DHT22;52756;52.826;6.214;2024-03-25T08:38:16;11.40;82.40
54938;DHT22;52756;52.826;6.214;2024-03-25T08:40:42;11.70;81.10
54938;DHT22;52756;52.826;6.214;2024-03-25T08:43:07;11.90;80.60
54938;DHT22;52756;52.826;6.214;2024-03-25T08:45:34;12.90;80.30
54938;DHT22;52756;52.826;6.214;2024-03-25T08:48:00;12.50;77.60
54938;DHT22;52756;52.826;6.214;2024-03-25T08:50:26;12.70;77.20
54938;DHT22;52756;52.826;6.214;2024-03-25T08:52:52;12.90;75.90
54938;DHT22;52756;52.826;6.214;2024-03-25T08:55:17;13.20;75.30
54938;DHT22;52756;52.826;6.214;2024-03-25T08:57:44;13.40;75.00
54938;DHT22;52756;52.826;6.214;2024-03-25T09:00:10;14.00;73.80
54938;DHT22;52756;52.826;6.214;2024-03-25T09:02:39;13.80;72.50
54938;DHT22;52756;52.826;6.214;2024-03-25T09:05:08;14.00;72.10
54938;DHT22;52756;52.826;6.214;2024-03-25T09:07:35;14.20;71.50
54938;DHT22;52756;52.826;6.214;2024-03-25T09:10:00;14.50;69.70
54938;DHT22;52756;52.826;6.214;2024-03-25T09:12:47;14.60;68.70
54938;DHT22;52756;52.826;6.214;2024-03-25T09:15:13;14.70;67.80
54938;DHT22;52756;52.826;6.214;2024-03-25T09:17:40;14.80;66.60
54938;DHT22;52756;52.826;6.214;2024-03-25T09:20:06;14.80;64.80
54938;DHT22;52756;52.826;6.214;2024-03-25T09:22:46;14.70;64.00
54938;DHT22;52756;52.826;6.214;2024-03-25T09:25:12;14.70;63.70
54938;DHT22;52756;52.826;6.214;2024-03-25T09:27:39;14.60;63.30
54938;DHT22;52756;52.826;6.214;2024-03-25T09:30:05;15.10;63.80
54938;DHT22;52756;52.826;6.214;2024-03-25T09:32:31;14.40;63.80
54938;DHT22;52756;52.826;6.214;2024-03-25T09:34:57;14.30;63.60
54938;DHT22;52756;52.826;6.214;2024-03-25T09:37:23;14.10;63.10
54938;DHT22;52756;52.826;6.214;2024-03-25T09:39:48;14.10;63.70
54938;DHT22;52756;52.826;6.214;2024-03-25T09:42:15;13.70;64.10
54938;DHT22;52756;52.826;6.214;2024-03-25T09:44:44;14.20;64.60
54938;DHT22;52756;52.826;6.214;2024-03-25T09:47:10;13.50;64.90
54938;DHT22;52756;52.826;6.214;2024-03-25T09:49:40;13.50;65.70
54938;DHT22;52756;52.826;6.214;2024-03-25T09:52:08;13.30;65.80
54938;DHT22;52756;52.826;6.214;2024-03-25T09:54:33;13.50;66.20
54938;DHT22;52756;52.826;6.214;2024-03-25T09:57:00;13.00;65.90
54938;DHT22;52756;52.826;6.214;2024-03-25T09:59:27;12.90;65.80
54938;DHT22;52756;52.826;6.214;2024-03-25T10:01:54;13.00;66.60
54938;DHT22;52756;52.826;6.214;2024-03-25T10:04:20;12.80;67.00
54938;DHT22;52756;52.826;6.214;2024-03-25T10:06:45;12.70;67.50
54938;DHT22;52756;52.826;6.214;2024-03-25T10:09:11;12.60;68.20
54938;DHT22;52756;52.826;6.214;2024-03-25T10:11:37;12.60;69.00
54938;DHT22;52756;52.826;6.214;2024-03-25T10:14:02;12.50;69.40
54938;DHT22;52756;52.826;6.214;2024-03-25T10:16:28;12.50;69.50
54938;DHT22;52756;52.826;6.214;2024-03-25T10:18:54;12.90;70.30
54938;DHT22;52756;52.826;6.214;2024-03-25T10:21:20;12.50;70.00
54938;DHT22;52756;52.826;6.214;2024-03-25T10:23:49;12.80;70.20
54938;DHT22;52756;52.826;6.214;2024-03-25T10:26:28;12.50;69.90
54938;DHT22;52756;52.826;6.214;2024-03-25T10:29:02;12.40;69.20
54938;DHT22;52756;52.826;6.214;2024-03-25T10:31:29;12.50;69.90
54938;DHT22;52756;52.826;6.214;2024-03-25T10:33:54;12.50;69.80
54938;DHT22;52756;52.826;6.214;2024-03-25T10:36:21;13.10;69.70
54938;DHT22;52756;52.826;6.214;2024-03-25T10:38:49;12.40;69.00
54938;DHT22;52756;52.826;6.214;2024-03-25T10:41:17;13.10;68.80
54938;DHT22;52756;52.826;6.214;2024-03-25T10:43:47;12.30;68.30
54938;DHT22;52756;52.826;6.214;2024-03-25T10:46:18;12.20;67.70
54938;DHT22;52756;52.826;6.214;2024-03-25T10:48:56;12.20;67.50
54938;DHT22;52756;52.826;6.214;2024-03-25T10:51:25;12.10;67.30
54938;DHT22;52756;52.826;6.214;2024-03-25T10:53:52;12.10;68.00
54938;DHT22;52756;52.826;6.214;2024-03-25T10:56:20;12.00;68.20
54938;DHT22;52756;52.826;6.214;2024-03-25T10:58:48;11.90;68.10
54938;DHT22;52756;52.826;6.214;2024-03-25T11:01:18;11.90;67.40
54938;DHT22;52756;52.826;6.214;2024-03-25T11:03:45;11.90;67.10
54938;DHT22;52756;52.826;6.214;2024-03-25T11:06:12;11.80;66.20
54938;DHT22;52756;52.826;6.214;2024-03-25T11:08:37;11.80;66.90
54938;DHT22;52756;52.826;6.214;2024-03-25T11:11:05;12.40;68.10
54938;DHT22;52756;52.826;6.214;2024-03-25T11:13:31;11.80;67.90
54938;DHT22;52756;52.826;6.214;2024-03-25T11:15:58;11.90;68.10
54938;DHT22;52756;52.826;6.214;2024-03-25T11:18:25;11.90;68.50
54938;DHT22;52756;52.826;6.214;2024-03-25T11:21:06;11.90;68.20
54938;DHT22;52756;52.826;6.214;2024-03-25T11:23:41;12.00;68.50
54938;DHT22;52756;52.826;6.214;2024-03-25T11:26:20;12.00;69.00
54938;DHT22;52756;52.826;6.214;2024-03-25T11:28:46;12.40;70.10
54938;DHT22;52756;52.826;6.214;2024-03-25T11:31:11;11.90;68.50
54938;DHT22;52756;52.826;6.214;2024-03-25T11:33:39;12.20;68.70
54938;DHT22;52756;52.826;6.214;2024-03-25T11:36:05;11.90;67.60
54938;DHT22;52756;52.826;6.214;2024-03-25T11:38:33;11.90;67.50
54938;DHT22;52756;52.826;6.214;2024-03-25T11:41:01;12.00;67.90
54938;DHT22;52756;52.826;6.214;2024-03-25T11:43:26;12.00;67.50
54938;DHT22;52756;52.826;6.214;2024-03-25T11:45:52;12.00;65.90
54938;DHT22;52756;52.826;6.214;2024-03-25T11:48:19;12.10;66.10
54938;DHT22;52756;52.826;6.214;2024-03-25T11:50:48;12.60;66.60
54938;DHT22;52756;52.826;6.214;2024-03-25T11:53:14;12.20;66.20
54938;DHT22;52756;52.826;6.214;2024-03-25T11:56:00;12.20;66.10
54938;DHT22;52756;52.826;6.214;2024-03-25T11:58:25;12.20;66.50
54938;DHT22;52756;52.826;6.214;2024-03-25T12:00:51;12.20;65.40
54938;DHT22;52756;52.826;6.214;2024-03-25T12:03:17;12.20;64.90
54938;DHT22;52756;52.826;6.214;2024-03-25T12:05:46;12.40;64.90
54938;DHT22;52756;52.826;6.214;2024-03-25T12:08:12;12.30;64.70
54938;DHT22;52756;52.826;6.214;2024-03-25T12:10:39;12.30;64.60
54938;DHT22;52756;52.826;6.214;2024-03-25T12:13:23;12.20;64.40
54938;DHT22;52756;52.826;6.214;2024-03-25T12:15:51;12.50;64.90
54938;DHT22;52756;52.826;6.214;2024-03-25T12:18:18;12.20;64.70
54938;DHT22;52756;52.826;6.214;2024-03-25T12:20:48;12.20;64.40
54938;DHT22;52756;52.826;6.214;2024-03-25T12:23:14;12.10;64.00
54938;DHT22;52756;52.826;6.214;2024-03-25T12:25:41;12.20;64.40
54938;DHT22;52756;52.826;6.214;2024-03-25T12:28:10;12.10;64.60
54938;DHT22;52756;52.826;6.214;2024-03-25T12:30:57;12.10;64.90
54938;DHT22;52756;52.826;6.214;2024-03-25T12:33:24;12.10;64.80
54938;DHT22;52756;52.826;6.214;2024-03-25T12:35:51;12.10;64.80
54938;DHT22;52756;52.826;6.214;2024-03-25T12:38:28;12.10;64.40
54938;DHT22;52756;52.826;6.214;2024-03-25T12:41:02;12.30;64.20
54938;DHT22;52756;52.826;6.214;2024-03-25T12:43:31;12.10;63.30
54938;DHT22;52756;52.826;6.214;2024-03-25T12:45:57;12.10;64.20
54938;DHT22;52756;52.826;6.214;2024-03-25T12:48:23;13.00;65.20
54938;DHT22;52756;52.826;6.214;2024-03-25T12:50:49;12.10;64.10
54938;DHT22;52756;52.826;6.214;2024-03-25T12:53:18;12.20;63.00
54938;DHT22;52756;52.826;6.214;2024-03-25T12:55:44;12.20;62.50
54938;DHT22;52756;52.826;6.214;2024-03-25T12:58:10;12.40;62.10
54938;DHT22;52756;52.826;6.214;2024-03-25T13:00:37;12.30;62.20
54938;DHT22;52756;52.826;6.214;2024-03-25T13:03:07;12.30;61.60
54938;DHT22;52756;52.826;6.214;2024-03-25T13:05:34;12.30;61.70
54938;DHT22;52756;52.826;6.214;2024-03-25T13:08:00;12.30;62.60
54938;DHT22;52756;52.826;6.214;2024-03-25T13:10:27;12.30;61.60
54938;DHT22;52756;52.826;6.214;2024-03-25T13:12:53;12.40;60.30
54938;DHT22;52756;52.826;6.214;2024-03-25T13:15:18;12.40;60.60
54938;DHT22;52756;52.826;6.214;2024-03-25T13:17:44;12.40;60.00
54938;DHT22;52756;52.826;6.214;2024-03-25T13:20:11;12.40;60.20
54938;DHT22;52756;52.826;6.214;2024-03-25T13:22:37;12.30;61.80
54938;DHT22;52756;52.826;6.214;2024-03-25T13:25:03;12.40;60.80
54938;DHT22;52756;52.826;6.214;2024-03-25T13:27:29;12.40;60.20
54938;DHT22;52756;52.826;6.214;2024-03-25T13:29:56;12.90;60.10
54938;DHT22;52756;52.826;6.214;2024-03-25T13:32:22;12.50;60.50
54938;DHT22;52756;52.826;6.214;2024-03-25T13:34:48;13.10;60.40
54938;DHT22;52756;52.826;6.214;2024-03-25T13:37:14;12.60;60.80
54938;DHT22;52756;52.826;6.214;2024-03-25T13:39:39;12.60;59.80
54938;DHT22;52756;52.826;6.214;2024-03-25T13:42:05;12.70;57.80
54938;DHT22;52756;52.826;6.214;2024-03-25T13:44:31;12.70;58.40
54938;DHT22;52756;52.826;6.214;2024-03-25T13:46:57;12.70;57.90
54938;DHT22;52756;52.826;6.214;2024-03-25T13:49:23;12.70;58.20
54938;DHT22;52756;52.826;6.214;2024-03-25T13:51:51;12.70;58.90
54938;DHT22;52756;52.826;6.214;2024-03-25T13:54:21;12.80;58.80
54938;DHT22;52756;52.826;6.214;2024-03-25T13:56:47;12.80;59.20
54938;DHT22;52756;52.826;6.214;2024-03-25T13:59:13;12.80;59.80
54938;DHT22;52756;52.826;6.214;2024-03-25T14:01:40;13.10;60.60
54938;DHT22;52756;52.826;6.214;2024-03-25T14:04:06;12.80;58.60
54938;DHT22;52756;52.826;6.214;2024-03-25T14:06:32;12.80;57.50
54938;DHT22;52756;52.826;6.214;2024-03-25T14:08:59;12.80;58.40
54938;DHT22;52756;52.826;6.214;2024-03-25T14:11:24;12.80;58.70
54938;DHT22;52756;52.826;6.214;2024-03-25T14:13:50;12.80;59.70
54938;DHT22;52756;52.826;6.214;2024-03-25T14:16:16;12.90;57.90
54938;DHT22;52756;52.826;6.214;2024-03-25T14:18:42;12.80;57.40
54938;DHT22;52756;52.826;6.214;2024-03-25T14:21:08;12.80;57.60
54938;DHT22;52756;52.826;6.214;2024-03-25T14:23:33;12.80;57.80
54938;DHT22;52756;52.826;6.214;2024-03-25T14:25:59;12.80;58.70
54938;DHT22;52756;52.826;6.214;2024-03-25T14:28:24;12.80;59.20
54938;DHT22;52756;52.826;6.214;2024-03-25T14:30:50;13.50;58.50
54938;DHT22;52756;52.826;6.214;2024-03-25T14:33:17;13.50;58.10
54938;DHT22;52756;52.826;6.214;2024-03-25T14:35:43;13.30;56.40
54938;DHT22;52756;52.826;6.214;2024-03-25T14:38:08;13.00;56.20
54938;DHT22;52756;52.826;6.214;2024-03-25T14:40:40;12.80;55.80
54938;DHT22;52756;52.826;6.214;2024-03-25T14:43:06;12.80;54.40
54938;DHT22;52756;52.826;6.214;2024-03-25T14:45:32;12.80;53.40
54938;DHT22;52756;52.826;6.214;2024-03-25T14:47:58;12.80;53.60
54938;DHT22;52756;52.826;6.214;2024-03-25T14:50:24;13.60;53.00
54938;DHT22;52756;52.826;6.214;2024-03-25T14:52:49;12.80;55.40
54938;DHT22;52756;52.826;6.214;2024-03-25T14:55:15;13.40;55.90
54938;DHT22;52756;52.826;6.214;2024-03-25T14:57:40;12.90;51.70
54938;DHT22;52756;52.826;6.214;2024-03-25T15:00:06;12.90;53.00
54938;DHT22;52756;52.826;6.214;2024-03-25T15:02:33;12.80;50.90
54938;DHT22;52756;52.826;6.214;2024-03-25T15:04:59;13.50;52.80
54938;DHT22;52756;52.826;6.214;2024-03-25T15:07:26;12.80;53.50
54938;DHT22;52756;52.826;6.214;2024-03-25T15:09:52;13.00;54.80
54938;DHT22;52756;52.826;6.214;2024-03-25T15:12:17;12.90;53.70
54938;DHT22;52756;52.826;6.214;2024-03-25T15:14:43;13.10;54.10
54938;DHT22;52756;52.826;6.214;2024-03-25T15:17:08;13.30;55.70
54938;DHT22;52756;52.826;6.214;2024-03-25T15:19:34;12.90;54.00
54938;DHT22;52756;52.826;6.214;2024-03-25T15:22:00;12.90;54.60
54938;DHT22;52756;52.826;6.214;2024-03-25T15:24:25;13.60;55.00
54938;DHT22;52756;52.826;6.214;2024-03-25T15:26:51;12.90;55.50
54938;DHT22;52756;52.826;6.214;2024-03-25T15:29:17;13.60;55.20
54938;DHT22;52756;52.826;6.214;2024-03-25T15:31:42;13.20;55.70
54938;DHT22;52756;52.826;6.214;2024-03-25T15:34:08;13.40;56.30
54938;DHT22;52756;52.826;6.214;2024-03-25T15:36:33;12.80;54.60